sensor_id;sensor_type;location;lat;lon;timestamp;temperature;humidity
15574;DHT22;7888;46.748;8.102;2023-06-24T00:02:12;22.20;41.50
15574;DHT22;7888;46.748;8.102;2023-06-24T00:04:38;22.20;41.50
15574;DHT22;7888;46.748;8.102;2023-06-24T00:07:04;22.20;41.30
15574;DHT22;7888;46.748;8.102;2023-06-24T00:09:30;22.20;41.40
15574;DHT22;7888;46.748;8.102;2023-06-24T00:11:57;22.10;41.50
15574;DHT22;7888;46.748;8.102;2023-06-24T00:14:24;22.10;41.80
15574;DHT22;7888;46.748;8.102;2023-06-24T00:16:52;22.10;42.00
15574;DHT22;7888;46.748;8.102;2023-06-24T00:19:24;22.10;42.20
15574;DHT22;7888;46.748;8.102;2023-06-24T00:21:52;22.00;42.10
15574;DHT22;7888;46.748;8.102;2023-06-24T00:24:19;22.00;42.30
15574;DHT22;7888;46.748;8.102;2023-06-24T00:26:51;22.00;42.60
15574;DHT22;7888;46.748;8.102;2023-06-24T00:29:18;21.90;42.50
15574;DHT22;7888;46.748;8.102;2023-06-24T00:31:44;21.90;42.60
15574;DHT22;7888;46.748;8.102;2023-06-24T00:34:10;21.80;42.60
15574;DHT22;7888;46.748;8.102;2023-06-24T00:36:35;21.80;42.60
15574;DHT22;7888;46.748;8.102;2023-06-24T00:39:02;21.80;42.80
15574;DHT22;7888;46.748;8.102;2023-06-24T00:41:30;21.70;42.80
15574;DHT22;7888;46.748;8.102;2023-06-24T00:43:56;21.70;42.90
15574;DHT22;7888;46.748;8.102;2023-06-24T00:46:24;21.60;42.80
15574;DHT22;7888;46.748;8.102;2023-06-24T00:48:55;21.60;43.00
15574;DHT22;7888;46.748;8.102;2023-06-24T00:51:22;21.50;43.20
15574;DHT22;7888;46.748;8.102;2023-06-24T00:53:58;21.50;43.20
15574;DHT22;7888;46.748;8.102;2023-06-24T00:56:33;21.50;43.40
15574;DHT22;7888;46.748;8.102;2023-06-24T00:59:03;21.40;43.60
15574;DHT22;7888;46.748;8.102;2023-06-24T01:01:33;21.40;43.60
15574;DHT22;7888;46.748;8.102;2023-06-24T01:04:02;21.30;43.70
15574;DHT22;7888;46.748;8.102;2023-06-24T01:06:29;21.30;43.80
15574;DHT22;7888;46.748;8.102;2023-06-24T01:08:57;21.20;43.80
15574;DHT22;7888;46.748;8.102;2023-06-24T01:11:26;21.20;44.00
15574;DHT22;7888;46.748;8.102;2023-06-24T01:13:52;21.10;44.00
15574;DHT22;7888;46.748;8.102;2023-06-24T01:32:07;20.90;44.70
15574;DHT22;7888;46.748;8.102;2023-06-24T01:34:42;20.80;44.50
15574;DHT22;7888;46.748;8.102;2023-06-24T01:37:35;20.80;44.50
15574;DHT22;7888;46.748;8.102;2023-06-24T01:40:18;20.70;44.90
15574;DHT22;7888;46.748;8.102;2023-06-24T01:42:50;20.70;45.10
15574;DHT22;7888;46.748;8.102;2023-06-24T01:45:23;20.60;44.70
15574;DHT22;7888;46.748;8.102;2023-06-24T01:50:48;20.50;45.20
15574;DHT22;7888;46.748;8.102;2023-06-24T01:53:33;20.40;45.00
15574;DHT22;7888;46.748;8.102;2023-06-24T01:56:03;20.40;45.00
15574;DHT22;7888;46.748;8.102;2023-06-24T01:58:31;20.40;44.90
15574;DHT22;7888;46.748;8.102;2023-06-24T02:01:01;20.40;45.00
15574;DHT22;7888;46.748;8.102;2023-06-24T02:03:29;20.40;45.10
15574;DHT22;7888;46.748;8.102;2023-06-24T02:05:59;20.30;45.80
15574;DHT22;7888;46.748;8.102;2023-06-24T02:08:29;20.30;45.50
15574;DHT22;7888;46.748;8.102;2023-06-24T02:10:59;20.20;45.50
15574;DHT22;7888;46.748;8.102;2023-06-24T02:13:28;20.20;45.50
15574;DHT22;7888;46.748;8.102;2023-06-24T02:15:59;20.20;45.60
15574;DHT22;7888;46.748;8.102;2023-06-24T02:18:27;20.10;45.60
15574;DHT22;7888;46.748;8.102;2023-06-24T02:20:54;20.20;45.80
15574;DHT22;7888;46.748;8.102;2023-06-24T02:23:22;20.10;45.80
15574;DHT22;7888;46.748;8.102;2023-06-24T02:25:50;20.00;45.60
15574;DHT22;7888;46.748;8.102;2023-06-24T02:28:17;20.00;45.80
15574;DHT22;7888;46.748;8.102;2023-06-24T02:30:44;20.00;45.90
15574;DHT22;7888;46.748;8.102;2023-06-24T02:33:10;20.00;45.90
15574;DHT22;7888;46.748;8.102;2023-06-24T02:35:37;19.90;46.00
15574;DHT22;7888;46.748;8.102;2023-06-24T02:38:03;19.90;46.10
15574;DHT22;7888;46.748;8.102;2023-06-24T02:40:29;19.80;45.90
15574;DHT22;7888;46.748;8.102;2023-06-24T02:42:57;19.80;46.00
15574;DHT22;7888;46.748;8.102;2023-06-24T02:45:24;19.80;46.20
15574;DHT22;7888;46.748;8.102;2023-06-24T02:47:50;19.80;46.80
15574;DHT22;7888;46.748;8.102;2023-06-24T02:50:16;19.80;46.30
15574;DHT22;7888;46.748;8.102;2023-06-24T02:52:43;19.70;46.40
15574;DHT22;7888;46.748;8.102;2023-06-24T02:55:10;19.70;46.40
15574;DHT22;7888;46.748;8.102;2023-06-24T02:57:37;19.70;46.50
15574;DHT22;7888;46.748;8.102;2023-06-24T03:00:05;19.70;46.50
15574;DHT22;7888;46.748;8.102;2023-06-24T03:02:38;19.60;46.70
15574;DHT22;7888;46.748;8.102;2023-06-24T03:05:05;19.60;46.60
15574;DHT22;7888;46.748;8.102;2023-06-24T03:07:33;19.50;46.50
15574;DHT22;7888;46.748;8.102;2023-06-24T03:10:05;19.50;46.60
15574;DHT22;7888;46.748;8.102;2023-06-24T03:12:32;19.50;46.80
15574;DHT22;7888;46.748;8.102;2023-06-24T03:14:58;19.50;46.80
15574;DHT22;7888;46.748;8.102;2023-06-24T03:17:23;19.50;46.90
15574;DHT22;7888;46.748;8.102;2023-06-24T03:19:50;19.50;46.70
15574;DHT22;7888;46.748;8.102;2023-06-24T03:22:16;19.40;46.70
15574;DHT22;7888;46.748;8.102;2023-06-24T03:24:45;19.40;47.00
15574;DHT22;7888;46.748;8.102;2023-06-24T03:27:11;19.40;47.10
15574;DHT22;7888;46.748;8.102;2023-06-24T03:29:38;19.40;47.10
15574;DHT22;7888;46.748;8.102;2023-06-24T03:32:04;19.30;46.90
15574;DHT22;7888;46.748;8.102;2023-06-24T03:34:30;19.30;46.90
15574;DHT22;7888;46.748;8.102;2023-06-24T03:36:56;19.30;47.00
15574;DHT22;7888;46.748;8.102;2023-06-24T03:39:22;19.30;47.10
15574;DHT22;7888;46.748;8.102;2023-06-24T03:41:48;19.20;47.00
15574;DHT22;7888;46.748;8.102;2023-06-24T03:44:14;19.20;47.10
15574;DHT22;7888;46.748;8.102;2023-06-24T03:46:40;19.20;47.20
15574;DHT22;7888;46.748;8.102;2023-06-24T03:49:06;19.20;47.20
15574;DHT22;7888;46.748;8.102;2023-06-24T03:51:32;19.20;47.20
15574;DHT22;7888;46.748;8.102;2023-06-24T03:53:58;19.10;47.10
15574;DHT22;7888;46.748;8.102;2023-06-24T03:56:24;19.10;47.20
15574;DHT22;7888;46.748;8.102;2023-06-24T03:58:49;19.10;47.30
15574;DHT22;7888;46.748;8.102;2023-06-24T04:01:15;19.20;47.60
15574;DHT22;7888;46.748;8.102;2023-06-24T04:03:45;19.10;47.60
15574;DHT22;7888;46.748;8.102;2023-06-24T04:06:11;19.10;47.60
15574;DHT22;7888;46.748;8.102;2023-06-24T04:08:36;19.10;47.60
15574;DHT22;7888;46.748;8.102;2023-06-24T04:11:05;19.10;47.70
15574;DHT22;7888;46.748;8.102;2023-06-24T04:13:35;19.00;47.70
15574;DHT22;7888;46.748;8.102;2023-06-24T04:16:01;19.00;48.10
15574;DHT22;7888;46.748;8.102;2023-06-24T04:18:27;19.00;47.90
15574;DHT22;7888;46.748;8.102;2023-06-24T04:20:53;19.00;48.00
15574;DHT22;7888;46.748;8.102;2023-06-24T04:23:19;19.00;48.10
15574;DHT22;7888;46.748;8.102;2023-06-24T04:25:45;19.00;48.20
15574;DHT22;7888;46.748;8.102;2023-06-24T04:28:11;19.00;48.20
15574;DHT22;7888;46.748;8.102;2023-06-24T04:30:37;19.00;48.20
15574;DHT22;7888;46.748;8.102;2023-06-24T04:33:07;19.00;48.20
15574;DHT22;7888;46.748;8.102;2023-06-24T04:35:33;19.00;48.30
15574;DHT22;7888;46.748;8.102;2023-06-24T04:37:59;19.00;48.20
15574;DHT22;7888;46.748;8.102;2023-06-24T04:40:25;19.10;48.20
15574;DHT22;7888;46.748;8.102;2023-06-24T04:42:51;19.10;48.20
15574;DHT22;7888;46.748;8.102;2023-06-24T04:45:16;19.10;48.40
15574;DHT22;7888;46.748;8.102;2023-06-24T04:47:42;19.10;48.40
15574;DHT22;7888;46.748;8.102;2023-06-24T04:50:09;19.10;48.50
15574;DHT22;7888;46.748;8.102;2023-06-24T04:52:35;19.10;48.60
15574;DHT22;7888;46.748;8.102;2023-06-24T04:55:01;19.20;48.70
15574;DHT22;7888;46.748;8.102;2023-06-24T04:57:29;19.20;48.70
15574;DHT22;7888;46.748;8.102;2023-06-24T04:59:57;19.20;48.90
15574;DHT22;7888;46.748;8.102;2023-06-24T05:02:23;19.20;48.90
15574;DHT22;7888;46.748;8.102;2023-06-24T05:04:51;19.20;48.90
15574;DHT22;7888;46.748;8.102;2023-06-24T05:07:17;19.20;48.80
15574;DHT22;7888;46.748;8.102;2023-06-24T05:09:43;19.30;48.90
15574;DHT22;7888;46.748;8.102;2023-06-24T05:12:09;19.30;49.00
15574;DHT22;7888;46.748;8.102;2023-06-24T05:14:36;19.30;49.10
15574;DHT22;7888;46.748;8.102;2023-06-24T05:17:03;19.30;49.00
15574;DHT22;7888;46.748;8.102;2023-06-24T05:19:29;19.40;48.80
15574;DHT22;7888;46.748;8.102;2023-06-24T05:21:55;19.40;48.90
15574;DHT22;7888;46.748;8.102;2023-06-24T05:24:21;19.40;49.00
15574;DHT22;7888;46.748;8.102;2023-06-24T05:26:49;19.50;49.10
15574;DHT22;7888;46.748;8.102;2023-06-24T05:29:16;19.50;49.30
15574;DHT22;7888;46.748;8.102;2023-06-24T05:31:43;19.50;49.10
15574;DHT22;7888;46.748;8.102;2023-06-24T05:34:09;19.60;49.20
15574;DHT22;7888;46.748;8.102;2023-06-24T05:36:35;19.60;49.10
15574;DHT22;7888;46.748;8.102;2023-06-24T05:39:01;19.60;49.10
15574;DHT22;7888;46.748;8.102;2023-06-24T05:41:27;19.70;49.30
15574;DHT22;7888;46.748;8.102;2023-06-24T05:44:04;19.70;49.10
15574;DHT22;7888;46.748;8.102;2023-06-24T05:46:32;19.70;49.40
15574;DHT22;7888;46.748;8.102;2023-06-24T05:48:58;19.80;49.00
15574;DHT22;7888;46.748;8.102;2023-06-24T05:51:23;19.80;49.10
15574;DHT22;7888;46.748;8.102;2023-06-24T05:53:49;19.90;49.00
15574;DHT22;7888;46.748;8.102;2023-06-24T05:56:15;19.90;49.00
15574;DHT22;7888;46.748;8.102;2023-06-24T05:58:41;20.00;49.00
15574;DHT22;7888;46.748;8.102;2023-06-24T06:01:10;20.00;49.00
15574;DHT22;7888;46.748;8.102;2023-06-24T06:03:36;20.10;49.00
15574;DHT22;7888;46.748;8.102;2023-06-24T06:06:02;20.20;48.90
15574;DHT22;7888;46.748;8.102;2023-06-24T06:08:28;20.20;48.80
15574;DHT22;7888;46.748;8.102;2023-06-24T06:10:53;20.30;48.80
15574;DHT22;7888;46.748;8.102;2023-06-24T06:13:19;20.40;48.80
15574;DHT22;7888;46.748;8.102;2023-06-24T06:15:45;20.50;48.70
15574;DHT22;7888;46.748;8.102;2023-06-24T06:18:12;20.60;48.60
15574;DHT22;7888;46.748;8.102;2023-06-24T06:20:37;20.70;48.40
15574;DHT22;7888;46.748;8.102;2023-06-24T06:23:03;20.80;48.40
15574;DHT22;7888;46.748;8.102;2023-06-24T06:25:29;20.90;48.40
15574;DHT22;7888;46.748;8.102;2023-06-24T06:27:55;21.10;48.40
15574;DHT22;7888;46.748;8.102;2023-06-24T06:30:21;21.20;48.10
15574;DHT22;7888;46.748;8.102;2023-06-24T06:32:46;21.30;48.10
15574;DHT22;7888;46.748;8.102;2023-06-24T06:35:12;21.40;47.90
15574;DHT22;7888;46.748;8.102;2023-06-24T06:37:38;21.60;48.00
15574;DHT22;7888;46.748;8.102;2023-06-24T06:40:04;21.70;47.50
15574;DHT22;7888;46.748;8.102;2023-06-24T06:42:31;21.80;47.40
15574;DHT22;7888;46.748;8.102;2023-06-24T06:44:56;22.00;47.30
15574;DHT22;7888;46.748;8.102;2023-06-24T06:47:22;22.10;47.40
15574;DHT22;7888;46.748;8.102;2023-06-24T06:49:48;22.30;47.10
15574;DHT22;7888;46.748;8.102;2023-06-24T06:52:14;22.40;47.00
15574;DHT22;7888;46.748;8.102;2023-06-24T06:54:41;22.50;46.80
15574;DHT22;7888;46.748;8.102;2023-06-24T06:57:07;22.60;46.70
15574;DHT22;7888;46.748;8.102;2023-06-24T06:59:33;22.80;46.80
15574;DHT22;7888;46.748;8.102;2023-06-24T07:01:59;22.90;46.00
15574;DHT22;7888;46.748;8.102;2023-06-24T07:04:25;23.00;46.00
15574;DHT22;7888;46.748;8.102;2023-06-24T07:06:51;23.20;45.80
15574;DHT22;7888;46.748;8.102;2023-06-24T07:09:17;23.30;45.90
15574;DHT22;7888;46.748;8.102;2023-06-24T07:11:43;23.40;45.40
15574;DHT22;7888;46.748;8.102;2023-06-24T07:14:09;23.60;45.30
15574;DHT22;7888;46.748;8.102;2023-06-24T07:16:35;23.70;45.30
15574;DHT22;7888;46.748;8.102;2023-06-24T07:19:01;23.80;45.20
15574;DHT22;7888;46.748;8.102;2023-06-24T07:21:27;23.90;45.00
15574;DHT22;7888;46.748;8.102;2023-06-24T07:23:53;24.10;44.60
15574;DHT22;7888;46.748;8.102;2023-06-24T07:26:19;24.20;44.50
15574;DHT22;7888;46.748;8.102;2023-06-24T07:28:45;24.40;44.00
15574;DHT22;7888;46.748;8.102;2023-06-24T07:31:12;24.50;43.60
15574;DHT22;7888;46.748;8.102;2023-06-24T07:33:37;24.60;43.60
15574;DHT22;7888;46.748;8.102;2023-06-24T07:36:03;24.70;43.30
15574;DHT22;7888;46.748;8.102;2023-06-24T07:38:29;24.80;43.30
15574;DHT22;7888;46.748;8.102;2023-06-24T07:40:55;24.90;42.70
15574;DHT22;7888;46.748;8.102;2023-06-24T07:43:21;24.90;42.60
15574;DHT22;7888;46.748;8.102;2023-06-24T07:45:47;25.00;42.30
15574;DHT22;7888;46.748;8.102;2023-06-24T07:48:13;25.00;42.10
15574;DHT22;7888;46.748;8.102;2023-06-24T07:50:39;25.10;42.00
15574;DHT22;7888;46.748;8.102;2023-06-24T07:53:05;25.10;41.90
15574;DHT22;7888;46.748;8.102;2023-06-24T07:55:31;25.20;41.90
15574;DHT22;7888;46.748;8.102;2023-06-24T07:57:57;25.20;41.50
15574;DHT22;7888;46.748;8.102;2023-06-24T08:00:24;25.30;41.60
15574;DHT22;7888;46.748;8.102;2023-06-24T08:02:50;25.30;41.30
15574;DHT22;7888;46.748;8.102;2023-06-24T08:05:16;25.40;41.30
15574;DHT22;7888;46.748;8.102;2023-06-24T08:07:45;25.40;41.10
15574;DHT22;7888;46.748;8.102;2023-06-24T08:10:11;25.50;41.20
15574;DHT22;7888;46.748;8.102;2023-06-24T08:12:37;25.50;40.30
15574;DHT22;7888;46.748;8.102;2023-06-24T08:15:03;25.60;40.40
15574;DHT22;7888;46.748;8.102;2023-06-24T08:17:29;25.60;40.30
15574;DHT22;7888;46.748;8.102;2023-06-24T08:19:55;25.70;40.10
15574;DHT22;7888;46.748;8.102;2023-06-24T08:22:21;25.70;40.10
15574;DHT22;7888;46.748;8.102;2023-06-24T08:24:48;25.70;40.10
15574;DHT22;7888;46.748;8.102;2023-06-24T08:27:13;25.80;40.30
15574;DHT22;7888;46.748;8.102;2023-06-24T08:29:39;25.80;39.90
15574;DHT22;7888;46.748;8.102;2023-06-24T08:32:05;25.90;39.80
15574;DHT22;7888;46.748;8.102;2023-06-24T08:34:34;26.00;39.80
15574;DHT22;7888;46.748;8.102;2023-06-24T08:37:00;26.10;39.70
15574;DHT22;7888;46.748;8.102;2023-06-24T08:39:26;26.30;39.70
15574;DHT22;7888;46.748;8.102;2023-06-24T08:41:52;26.40;39.30
15574;DHT22;7888;46.748;8.102;2023-06-24T08:44:18;26.50;39.20
15574;DHT22;7888;46.748;8.102;2023-06-24T08:46:44;26.60;38.90
15574;DHT22;7888;46.748;8.102;2023-06-24T08:51:54;26.80;38.50
15574;DHT22;7888;46.748;8.102;2023-06-24T08:54:38;26.90;38.10
15574;DHT22;7888;46.748;8.102;2023-06-24T08:57:06;27.10;38.70
15574;DHT22;7888;46.748;8.102;2023-06-24T08:59:34;27.10;38.60
15574;DHT22;7888;46.748;8.102;2023-06-24T09:02:01;27.20;39.10
15574;DHT22;7888;46.748;8.102;2023-06-24T09:04:27;27.20;38.70
15574;DHT22;7888;46.748;8.102;2023-06-24T09:06:52;27.30;38.70
15574;DHT22;7888;46.748;8.102;2023-06-24T09:09:22;27.30;38.50
15574;DHT22;7888;46.748;8.102;2023-06-24T09:12:01;27.30;38.20
15574;DHT22;7888;46.748;8.102;2023-06-24T09:14:29;27.40;38.20
15574;DHT22;7888;46.748;8.102;2023-06-24T09:16:58;27.50;37.70
15574;DHT22;7888;46.748;8.102;2023-06-24T09:19:29;27.50;37.20
15574;DHT22;7888;46.748;8.102;2023-06-24T09:22:06;27.60;37.70
15574;DHT22;7888;46.748;8.102;2023-06-24T09:24:36;27.70;37.90
15574;DHT22;7888;46.748;8.102;2023-06-24T09:27:03;27.80;37.40
15574;DHT22;7888;46.748;8.102;2023-06-24T09:29:34;27.90;37.90
15574;DHT22;7888;46.748;8.102;2023-06-24T09:32:05;27.90;37.70
15574;DHT22;7888;46.748;8.102;2023-06-24T09:34:31;28.00;37.10
15574;DHT22;7888;46.748;8.102;2023-06-24T09:36:58;28.10;37.60
15574;DHT22;7888;46.748;8.102;2023-06-24T09:39:26;28.10;37.90
15574;DHT22;7888;46.748;8.102;2023-06-24T09:42:02;28.20;37.60
15574;DHT22;7888;46.748;8.102;2023-06-24T09:44:28;28.30;37.00
15574;DHT22;7888;46.748;8.102;2023-06-24T09:46:55;28.40;37.20
15574;DHT22;7888;46.748;8.102;2023-06-24T09:49:21;28.50;37.20
15574;DHT22;7888;46.748;8.102;2023-06-24T09:51:49;28.60;36.60
15574;DHT22;7888;46.748;8.102;2023-06-24T09:54:19;28.60;37.20
15574;DHT22;7888;46.748;8.102;2023-06-24T09:56:49;28.60;37.50
15574;DHT22;7888;46.748;8.102;2023-06-24T09:59:17;28.70;37.20
15574;DHT22;7888;46.748;8.102;2023-06-24T10:01:49;28.90;37.00
15574;DHT22;7888;46.748;8.102;2023-06-24T10:04:19;29.00;36.80
15574;DHT22;7888;46.748;8.102;2023-06-24T10:06:47;29.10;36.90
15574;DHT22;7888;46.748;8.102;2023-06-24T10:09:14;29.10;36.90
15574;DHT22;7888;46.748;8.102;2023-06-24T10:11:46;29.20;37.30
15574;DHT22;7888;46.748;8.102;2023-06-24T10:14:13;29.20;36.50
15574;DHT22;7888;46.748;8.102;2023-06-24T10:16:41;29.30;36.40
15574;DHT22;7888;46.748;8.102;2023-06-24T10:19:07;29.40;36.80
15574;DHT22;7888;46.748;8.102;2023-06-24T10:21:50;29.40;36.80
15574;DHT22;7888;46.748;8.102;2023-06-24T10:24:34;29.40;36.30
15574;DHT22;7888;46.748;8.102;2023-06-24T10:27:08;29.50;35.90
15574;DHT22;7888;46.748;8.102;2023-06-24T10:29:36;29.60;36.00
15574;DHT22;7888;46.748;8.102;2023-06-24T10:32:09;29.60;36.50
15574;DHT22;7888;46.748;8.102;2023-06-24T10:37:23;29.80;35.80
15574;DHT22;7888;46.748;8.102;2023-06-24T10:40:09;29.80;35.80
15574;DHT22;7888;46.748;8.102;2023-06-24T10:42:42;29.90;36.20
15574;DHT22;7888;46.748;8.102;2023-06-24T10:47:39;30.00;35.70
15574;DHT22;7888;46.748;8.102;2023-06-24T10:50:06;30.10;35.70
15574;DHT22;7888;46.748;8.102;2023-06-24T10:52:38;30.10;35.40
15574;DHT22;7888;46.748;8.102;2023-06-24T10:55:24;30.10;35.30
15574;DHT22;7888;46.748;8.102;2023-06-24T10:57:53;30.10;35.20
15574;DHT22;7888;46.748;8.102;2023-06-24T11:00:21;30.10;35.30
15574;DHT22;7888;46.748;8.102;2023-06-24T11:02:48;30.10;35.20
15574;DHT22;7888;46.748;8.102;2023-06-24T11:05:14;30.10;35.30
15574;DHT22;7888;46.748;8.102;2023-06-24T11:07:40;30.10;35.30
15574;DHT22;7888;46.748;8.102;2023-06-24T11:10:14;30.20;35.30
15574;DHT22;7888;46.748;8.102;2023-06-24T11:12:41;30.30;35.40
15574;DHT22;7888;46.748;8.102;2023-06-24T11:15:12;30.40;35.50
15574;DHT22;7888;46.748;8.102;2023-06-24T11:17:39;30.50;35.10
15574;DHT22;7888;46.748;8.102;2023-06-24T11:20:13;30.60;35.10
15574;DHT22;7888;46.748;8.102;2023-06-24T11:22:43;30.70;34.60
15574;DHT22;7888;46.748;8.102;2023-06-24T11:27:46;30.90;34.30
15574;DHT22;7888;46.748;8.102;2023-06-24T11:30:12;31.00;34.50
15574;DHT22;7888;46.748;8.102;2023-06-24T11:32:40;31.10;34.90
15574;DHT22;7888;46.748;8.102;2023-06-24T11:35:09;31.20;34.60
15574;DHT22;7888;46.748;8.102;2023-06-24T11:37:36;31.30;34.20
15574;DHT22;7888;46.748;8.102;2023-06-24T11:40:09;31.40;34.50
15574;DHT22;7888;46.748;8.102;2023-06-24T11:42:37;31.50;33.80
15574;DHT22;7888;46.748;8.102;2023-06-24T11:45:08;31.60;33.90
15574;DHT22;7888;46.748;8.102;2023-06-24T11:47:38;31.70;34.10
15574;DHT22;7888;46.748;8.102;2023-06-24T11:50:06;31.70;33.90
15574;DHT22;7888;46.748;8.102;2023-06-24T11:55:02;31.90;33.80
15574;DHT22;7888;46.748;8.102;2023-06-24T12:00:24;32.20;33.00
15574;DHT22;7888;46.748;8.102;2023-06-24T12:03:00;32.30;32.80
15574;DHT22;7888;46.748;8.102;2023-06-24T12:05:32;32.40;32.70
15574;DHT22;7888;46.748;8.102;2023-06-24T12:08:11;32.40;32.50
15574;DHT22;7888;46.748;8.102;2023-06-24T12:10:39;32.40;32.10
15574;DHT22;7888;46.748;8.102;2023-06-24T12:13:05;32.50;32.50
15574;DHT22;7888;46.748;8.102;2023-06-24T12:15:34;32.50;32.40
15574;DHT22;7888;46.748;8.102;2023-06-24T12:18:01;32.60;32.80
15574;DHT22;7888;46.748;8.102;2023-06-24T12:20:28;32.60;32.20
15574;DHT22;7888;46.748;8.102;2023-06-24T12:22:55;32.70;32.30
15574;DHT22;7888;46.748;8.102;2023-06-24T12:25:21;32.70;32.30
15574;DHT22;7888;46.748;8.102;2023-06-24T12:27:47;32.70;32.40
15574;DHT22;7888;46.748;8.102;2023-06-24T12:30:13;32.80;32.50
15574;DHT22;7888;46.748;8.102;2023-06-24T12:32:40;32.90;32.30
15574;DHT22;7888;46.748;8.102;2023-06-24T12:35:07;32.90;32.20
15574;DHT22;7888;46.748;8.102;2023-06-24T12:37:36;33.00;32.20
15574;DHT22;7888;46.748;8.102;2023-06-24T12:40:03;33.10;32.00
15574;DHT22;7888;46.748;8.102;2023-06-24T12:42:30;33.20;31.70
15574;DHT22;7888;46.748;8.102;2023-06-24T12:44:55;33.20;31.90
15574;DHT22;7888;46.748;8.102;2023-06-24T12:47:22;33.30;31.90
15574;DHT22;7888;46.748;8.102;2023-06-24T12:49:48;33.30;31.60
15574;DHT22;7888;46.748;8.102;2023-06-24T12:52:15;33.50;31.90
15574;DHT22;7888;46.748;8.102;2023-06-24T12:54:41;33.50;31.60
15574;DHT22;7888;46.748;8.102;2023-06-24T12:57:07;33.50;31.00
15574;DHT22;7888;46.748;8.102;2023-06-24T12:59:33;33.60;31.40
15574;DHT22;7888;46.748;8.102;2023-06-24T13:01:58;33.60;31.50
15574;DHT22;7888;46.748;8.102;2023-06-24T13:04:24;33.70;31.40
15574;DHT22;7888;46.748;8.102;2023-06-24T13:06:53;33.70;31.10
15574;DHT22;7888;46.748;8.102;2023-06-24T13:09:19;33.70;30.70
15574;DHT22;7888;46.748;8.102;2023-06-24T13:11:46;33.70;31.00
15574;DHT22;7888;46.748;8.102;2023-06-24T13:14:12;33.80;30.90
15574;DHT22;7888;46.748;8.102;2023-06-24T13:16:39;33.80;30.80
15574;DHT22;7888;46.748;8.102;2023-06-24T13:19:05;33.70;30.80
15574;DHT22;7888;46.748;8.102;2023-06-24T13:21:31;33.80;31.00
15574;DHT22;7888;46.748;8.102;2023-06-24T13:23:57;33.80;30.90
15574;DHT22;7888;46.748;8.102;2023-06-24T13:26:23;33.80;30.60
15574;DHT22;7888;46.748;8.102;2023-06-24T13:28:49;33.80;30.50
15574;DHT22;7888;46.748;8.102;2023-06-24T13:31:15;33.80;31.00
15574;DHT22;7888;46.748;8.102;2023-06-24T13:33:41;33.80;30.80
15574;DHT22;7888;46.748;8.102;2023-06-24T13:36:12;33.80;30.90
15574;DHT22;7888;46.748;8.102;2023-06-24T13:38:55;33.90;30.90
15574;DHT22;7888;46.748;8.102;2023-06-24T13:41:21;33.90;30.40
15574;DHT22;7888;46.748;8.102;2023-06-24T13:43:47;33.90;30.60
15574;DHT22;7888;46.748;8.102;2023-06-24T13:46:12;33.90;30.80
15574;DHT22;7888;46.748;8.102;2023-06-24T13:48:38;33.90;30.40
15574;DHT22;7888;46.748;8.102;2023-06-24T13:51:04;33.90;30.30
15574;DHT22;7888;46.748;8.102;2023-06-24T13:53:32;33.90;30.10
15574;DHT22;7888;46.748;8.102;2023-06-24T13:55:57;33.90;30.30
15574;DHT22;7888;46.748;8.102;2023-06-24T13:58:23;33.90;30.10
15574;DHT22;7888;46.748;8.102;2023-06-24T14:00:49;33.80;30.00
15574;DHT22;7888;46.748;8.102;2023-06-24T14:03:15;33.70;29.90
15574;DHT22;7888;46.748;8.102;2023-06-24T14:05:41;33.60;30.00
15574;DHT22;7888;46.748;8.102;2023-06-24T14:08:06;33.50;30.20
15574;DHT22;7888;46.748;8.102;2023-06-24T14:10:32;33.50;30.50
15574;DHT22;7888;46.748;8.102;2023-06-24T14:12:58;33.50;30.50
15574;DHT22;7888;46.748;8.102;2023-06-24T14:15:24;33.50;30.60
15574;DHT22;7888;46.748;8.102;2023-06-24T14:17:50;33.50;30.40
15574;DHT22;7888;46.748;8.102;2023-06-24T14:20:15;33.60;30.30
15574;DHT22;7888;46.748;8.102;2023-06-24T14:22:41;33.60;30.00
15574;DHT22;7888;46.748;8.102;2023-06-24T14:25:07;33.60;30.10
15574;DHT22;7888;46.748;8.102;2023-06-24T14:27:33;33.50;30.50
15574;DHT22;7888;46.748;8.102;2023-06-24T14:29:59;33.60;30.40
15574;DHT22;7888;46.748;8.102;2023-06-24T14:32:25;33.60;30.00
15574;DHT22;7888;46.748;8.102;2023-06-24T14:34:50;33.60;30.10
15574;DHT22;7888;46.748;8.102;2023-06-24T14:37:16;33.50;30.00
15574;DHT22;7888;46.748;8.102;2023-06-24T14:39:42;33.50;30.20
15574;DHT22;7888;46.748;8.102;2023-06-24T14:42:08;33.50;30.00
15574;DHT22;7888;46.748;8.102;2023-06-24T14:44:33;33.40;29.90
15574;DHT22;7888;46.748;8.102;2023-06-24T14:46:59;33.40;30.20
15574;DHT22;7888;46.748;8.102;2023-06-24T14:49:25;33.40;30.20
15574;DHT22;7888;46.748;8.102;2023-06-24T14:51:52;33.40;30.00
15574;DHT22;7888;46.748;8.102;2023-06-24T14:54:17;33.40;30.00
15574;DHT22;7888;46.748;8.102;2023-06-24T14:56:44;33.40;29.90
15574;DHT22;7888;46.748;8.102;2023-06-24T14:59:11;33.30;29.80
15574;DHT22;7888;46.748;8.102;2023-06-24T15:01:36;33.30;30.00
15574;DHT22;7888;46.748;8.102;2023-06-24T15:04:03;33.30;30.20
15574;DHT22;7888;46.748;8.102;2023-06-24T15:06:28;33.20;30.00
15574;DHT22;7888;46.748;8.102;2023-06-24T15:08:54;33.20;30.00
15574;DHT22;7888;46.748;8.102;2023-06-24T15:11:20;33.20;30.20
15574;DHT22;7888;46.748;8.102;2023-06-24T15:13:46;33.20;30.30
15574;DHT22;7888;46.748;8.102;2023-06-24T15:16:12;33.20;30.10
15574;DHT22;7888;46.748;8.102;2023-06-24T15:18:47;33.20;30.20
15574;DHT22;7888;46.748;8.102;2023-06-24T15:21:13;33.20;29.90
15574;DHT22;7888;46.748;8.102;2023-06-24T15:23:40;33.20;30.00
15574;DHT22;7888;46.748;8.102;2023-06-24T15:26:05;33.20;30.00
15574;DHT22;7888;46.748;8.102;2023-06-24T15:28:31;33.20;29.90
15574;DHT22;7888;46.748;8.102;2023-06-24T15:31:01;33.10;29.70
15574;DHT22;7888;46.748;8.102;2023-06-24T15:33:27;33.10;29.90
15574;DHT22;7888;46.748;8.102;2023-06-24T15:35:53;33.00;30.00
15574;DHT22;7888;46.748;8.102;2023-06-24T15:38:20;33.10;30.00
15574;DHT22;7888;46.748;8.102;2023-06-24T15:40:46;33.00;30.00
15574;DHT22;7888;46.748;8.102;2023-06-24T15:43:12;33.00;30.00
15574;DHT22;7888;46.748;8.102;2023-06-24T15:45:39;33.00;30.00
15574;DHT22;7888;46.748;8.102;2023-06-24T15:48:05;32.90;29.90
15574;DHT22;7888;46.748;8.102;2023-06-24T15:50:30;32.90;30.00
15574;DHT22;7888;46.748;8.102;2023-06-24T15:52:56;32.90;29.90
15574;DHT22;7888;46.748;8.102;2023-06-24T15:55:22;32.90;30.00
15574;DHT22;7888;46.748;8.102;2023-06-24T15:57:48;32.90;30.00
15574;DHT22;7888;46.748;8.102;2023-06-24T16:00:14;32.80;29.90
15574;DHT22;7888;46.748;8.102;2023-06-24T16:02:41;32.80;29.90
15574;DHT22;7888;46.748;8.102;2023-06-24T16:05:07;32.80;29.80
15574;DHT22;7888;46.748;8.102;2023-06-24T16:07:34;32.70;29.90
15574;DHT22;7888;46.748;8.102;2023-06-24T16:10:01;32.70;29.90
15574;DHT22;7888;46.748;8.102;2023-06-24T16:12:28;32.60;30.00
15574;DHT22;7888;46.748;8.102;2023-06-24T16:14:54;32.60;30.30
15574;DHT22;7888;46.748;8.102;2023-06-24T16:17:19;32.60;29.80
15574;DHT22;7888;46.748;8.102;2023-06-24T16:19:45;32.60;29.90
15574;DHT22;7888;46.748;8.102;2023-06-24T16:22:11;32.50;30.00